sensor_id;sensor_type;location;lat;lon;timestamp;P1;durP1;ratioP1;P2;durP2;ratioP2
75550;SDS011;65071;53.082;18.218;2022-12-18T00:02:11;22.90;;;9.90;;
75550;SDS011;65071;53.082;18.218;2022-12-18T00:04:38;32.70;;;11.20;;
75550;SDS011;65071;53.082;18.218;2022-12-18T00:07:04;33.70;;;12.80;;
75550;SDS011;65071;53.082;18.218;2022-12-18T00:09:31;26.30;;;11.30;;
75550;SDS011;65071;53.082;18.218;2022-12-18T00:11:57;33.30;;;12.60;;
75550;SDS011;65071;53.082;18.218;2022-12-18T00:14:24;33.40;;;11.30;;
75550;SDS011;65071;53.082;18.218;2022-12-18T00:16:50;29.80;;;11.70;;
75550;SDS011;65071;53.082;18.218;2022-12-18T00:19:18;18.10;;;6.10;;
75550;SDS011;65071;53.082;18.218;2022-12-18T00:21:44;28.80;;;10.00;;
75550;SDS011;65071;53.082;18.218;2022-12-18T00:24:11;30.60;;;10.40;;
75550;SDS011;65071;53.082;18.218;2022-12-18T00:26:38;23.40;;;7.80;;
75550;SDS011;65071;53.082;18.218;2022-12-18T00:29:12;28.30;;;9.20;;
75550;SDS011;65071;53.082;18.218;2022-12-18T00:31:40;28.70;;;9.70;;
75550;SDS011;65071;53.082;18.218;2022-12-18T00:34:09;24.20;;;8.30;;
75550;SDS011;65071;53.082;18.218;2022-12-18T00:36:39;22.70;;;7.20;;
75550;SDS011;65071;53.082;18.218;2022-12-18T00:39:07;28.70;;;10.90;;
75550;SDS011;65071;53.082;18.218;2022-12-18T00:41:34;24.50;;;9.30;;
75550;SDS011;65071;53.082;18.218;2022-12-18T00:44:19;31.50;;;9.80;;
75550;SDS011;65071;53.082;18.218;2022-12-18T00:46:46;26.20;;;9.10;;
75550;SDS011;65071;53.082;18.218;2022-12-18T00:49:14;29.90;;;11.10;;
75550;SDS011;65071;53.082;18.218;2022-12-18T00:51:42;27.10;;;10.00;;
75550;SDS011;65071;53.082;18.218;2022-12-18T00:54:09;23.30;;;7.30;;
75550;SDS011;65071;53.082;18.218;2022-12-18T00:56:36;25.00;;;7.90;;
75550;SDS011;65071;53.082;18.218;2022-12-18T00:59:04;26.50;;;9.80;;
75550;SDS011;65071;53.082;18.218;2022-12-18T01:01:31;27.50;;;9.70;;
75550;SDS011;65071;53.082;18.218;2022-12-18T01:03:59;28.00;;;10.60;;
75550;SDS011;65071;53.082;18.218;2022-12-18T01:06:27;26.90;;;8.00;;
75550;SDS011;65071;53.082;18.218;2022-12-18T01:08:55;31.50;;;11.80;;
75550;SDS011;65071;53.082;18.218;2022-12-18T01:11:22;20.20;;;8.10;;
75550;SDS011;65071;53.082;18.218;2022-12-18T01:13:48;28.80;;;9.70;;
75550;SDS011;65071;53.082;18.218;2022-12-18T01:16:15;30.30;;;10.60;;
75550;SDS011;65071;53.082;18.218;2022-12-18T01:18:43;31.40;;;10.10;;
75550;SDS011;65071;53.082;18.218;2022-12-18T01:21:11;23.50;;;8.10;;
75550;SDS011;65071;53.082;18.218;2022-12-18T01:23:41;23.30;;;7.90;;
75550;SDS011;65071;53.082;18.218;2022-12-18T01:26:12;24.80;;;7.80;;
75550;SDS011;65071;53.082;18.218;2022-12-18T01:28:40;23.60;;;8.60;;
75550;SDS011;65071;53.082;18.218;2022-12-18T01:31:09;19.20;;;8.00;;
75550;SDS011;65071;53.082;18.218;2022-12-18T01:36:15;30.80;;;10.40;;
75550;SDS011;65071;53.082;18.218;2022-12-18T01:38:43;25.40;;;8.70;;
75550;SDS011;65071;53.082;18.218;2022-12-18T01:41:11;30.50;;;10.80;;
75550;SDS011;65071;53.082;18.218;2022-12-18T01:43:44;22.50;;;7.00;;
75550;SDS011;65071;53.082;18.218;2022-12-18T01:46:17;28.60;;;10.30;;
75550;SDS011;65071;53.082;18.218;2022-12-18T01:48:45;27.50;;;9.40;;
75550;SDS011;65071;53.082;18.218;2022-12-18T01:51:15;18.20;;;6.40;;
75550;SDS011;65071;53.082;18.218;2022-12-18T01:53:43;24.90;;;8.60;;
75550;SDS011;65071;53.082;18.218;2022-12-18T01:56:12;17.20;;;6.00;;
75550;SDS011;65071;53.082;18.218;2022-12-18T02:01:26;27.60;;;10.30;;
75550;SDS011;65071;53.082;18.218;2022-12-18T02:03:54;22.60;;;8.70;;
75550;SDS011;65071;53.082;18.218;2022-12-18T02:09:16;25.40;;;8.80;;
75550;SDS011;65071;53.082;18.218;2022-12-18T02:17:16;25.60;;;7.80;;
75550;SDS011;65071;53.082;18.218;2022-12-18T02:29:28;23.50;;;7.50;;
75550;SDS011;65071;53.082;18.218;2022-12-18T02:31:42;25.30;;;7.00;;
75550;SDS011;65071;53.082;18.218;2022-12-18T02:34:14;20.50;;;7.60;;
75550;SDS011;65071;53.082;18.218;2022-12-18T02:36:42;27.40;;;7.80;;
75550;SDS011;65071;53.082;18.218;2022-12-18T02:39:11;25.50;;;10.00;;
75550;SDS011;65071;53.082;18.218;2022-12-18T02:41:45;25.10;;;9.10;;
75550;SDS011;65071;53.082;18.218;2022-12-18T02:44:13;22.10;;;8.40;;
75550;SDS011;65071;53.082;18.218;2022-12-18T02:46:42;26.70;;;9.10;;
75550;SDS011;65071;53.082;18.218;2022-12-18T02:51:50;23.10;;;8.50;;
75550;SDS011;65071;53.082;18.218;2022-12-18T02:57:31;17.80;;;6.60;;
75550;SDS011;65071;53.082;18.218;2022-12-18T03:00:08;19.50;;;6.70;;
75550;SDS011;65071;53.082;18.218;2022-12-18T03:05:19;18.30;;;6.60;;
75550;SDS011;65071;53.082;18.218;2022-12-18T03:10:24;24.10;;;9.00;;
75550;SDS011;65071;53.082;18.218;2022-12-18T03:13:04;22.00;;;8.90;;
75550;SDS011;65071;53.082;18.218;2022-12-18T03:15:36;26.20;;;8.60;;
75550;SDS011;65071;53.082;18.218;2022-12-18T03:18:10;22.20;;;7.60;;
75550;SDS011;65071;53.082;18.218;2022-12-18T03:20:44;24.50;;;7.50;;
75550;SDS011;65071;53.082;18.218;2022-12-18T03:23:18;20.50;;;7.10;;
75550;SDS011;65071;53.082;18.218;2022-12-18T03:25:49;20.80;;;6.50;;
75550;SDS011;65071;53.082;18.218;2022-12-18T03:28:21;20.10;;;7.00;;
75550;SDS011;65071;53.082;18.218;2022-12-18T03:30:53;19.50;;;7.30;;
75550;SDS011;65071;53.082;18.218;2022-12-18T03:33:25;16.70;;;6.10;;
75550;SDS011;65071;53.082;18.218;2022-12-18T03:35:57;23.50;;;7.40;;
75550;SDS011;65071;53.082;18.218;2022-12-18T03:38:23;20.80;;;7.00;;
75550;SDS011;65071;53.082;18.218;2022-12-18T03:40:59;24.30;;;8.20;;
75550;SDS011;65071;53.082;18.218;2022-12-18T03:46:54;20.80;;;8.80;;
75550;SDS011;65071;53.082;18.218;2022-12-18T03:49:27;20.50;;;7.60;;
75550;SDS011;65071;53.082;18.218;2022-12-18T03:52:15;23.20;;;8.10;;
75550;SDS011;65071;53.082;18.218;2022-12-18T03:54:47;21.50;;;7.60;;
75550;SDS011;65071;53.082;18.218;2022-12-18T03:57:18;18.00;;;6.60;;
75550;SDS011;65071;53.082;18.218;2022-12-18T03:59:50;19.30;;;7.40;;
75550;SDS011;65071;53.082;18.218;2022-12-18T04:02:22;15.20;;;5.80;;
75550;SDS011;65071;53.082;18.218;2022-12-18T04:04:51;18.60;;;6.90;;
75550;SDS011;65071;53.082;18.218;2022-12-18T04:07:22;15.60;;;6.10;;
75550;SDS011;65071;53.082;18.218;2022-12-18T04:09:50;23.00;;;7.80;;
75550;SDS011;65071;53.082;18.218;2022-12-18T04:12:24;24.70;;;7.50;;
75550;SDS011;65071;53.082;18.218;2022-12-18T04:14:52;18.90;;;7.70;;
75550;SDS011;65071;53.082;18.218;2022-12-18T04:17:18;23.50;;;9.20;;
75550;SDS011;65071;53.082;18.218;2022-12-18T04:19:47;21.60;;;8.20;;
75550;SDS011;65071;53.082;18.218;2022-12-18T04:22:13;18.10;;;6.70;;
75550;SDS011;65071;53.082;18.218;2022-12-18T04:24:43;22.00;;;7.30;;
75550;SDS011;65071;53.082;18.218;2022-12-18T04:27:15;22.10;;;7.30;;
75550;SDS011;65071;53.082;18.218;2022-12-18T04:29:46;18.20;;;6.50;;
75550;SDS011;65071;53.082;18.218;2022-12-18T04:32:14;22.30;;;7.40;;
75550;SDS011;65071;53.082;18.218;2022-12-18T04:34:42;19.30;;;7.90;;
75550;SDS011;65071;53.082;18.218;2022-12-18T04:37:09;17.50;;;7.00;;
75550;SDS011;65071;53.082;18.218;2022-12-18T04:39:35;17.90;;;7.30;;
75550;SDS011;65071;53.082;18.218;2022-12-18T04:42:06;15.00;;;6.30;;
75550;SDS011;65071;53.082;18.218;2022-12-18T04:44:34;24.40;;;8.50;;
75550;SDS011;65071;53.082;18.218;2022-12-18T04:47:00;22.90;;;8.60;;
75550;SDS011;65071;53.082;18.218;2022-12-18T04:49:27;25.90;;;9.10;;
75550;SDS011;65071;53.082;18.218;2022-12-18T04:51:54;25.30;;;8.60;;
75550;SDS011;65071;53.082;18.218;2022-12-18T04:54:20;25.60;;;8.90;;
75550;SDS011;65071;53.082;18.218;2022-12-18T04:56:47;21.40;;;8.60;;
75550;SDS011;65071;53.082;18.218;2022-12-18T04:59:13;24.60;;;9.00;;
75550;SDS011;65071;53.082;18.218;2022-12-18T05:01:40;24.00;;;8.10;;
75550;SDS011;65071;53.082;18.218;2022-12-18T05:04:07;25.40;;;8.30;;
75550;SDS011;65071;53.082;18.218;2022-12-18T05:06:33;19.50;;;6.90;;
75550;SDS011;65071;53.082;18.218;2022-12-18T05:09:00;20.10;;;6.70;;
75550;SDS011;65071;53.082;18.218;2022-12-18T05:11:26;18.20;;;7.50;;
75550;SDS011;65071;53.082;18.218;2022-12-18T05:13:53;17.70;;;7.00;;
75550;SDS011;65071;53.082;18.218;2022-12-18T05:16:22;20.60;;;7.50;;
75550;SDS011;65071;53.082;18.218;2022-12-18T05:18:48;18.90;;;6.70;;
75550;SDS011;65071;53.082;18.218;2022-12-18T05:21:15;18.10;;;7.00;;
75550;SDS011;65071;53.082;18.218;2022-12-18T05:23:42;20.40;;;7.00;;
75550;SDS011;65071;53.082;18.218;2022-12-18T05:26:16;22.50;;;7.70;;
75550;SDS011;65071;53.082;18.218;2022-12-18T05:28:44;23.90;;;8.90;;
75550;SDS011;65071;53.082;18.218;2022-12-18T05:31:11;22.00;;;6.70;;
75550;SDS011;65071;53.082;18.218;2022-12-18T05:33:38;26.70;;;9.00;;
75550;SDS011;65071;53.082;18.218;2022-12-18T05:36:05;27.30;;;9.40;;
75550;SDS011;65071;53.082;18.218;2022-12-18T05:38:34;13.00;;;4.80;;
75550;SDS011;65071;53.082;18.218;2022-12-18T05:41:03;14.80;;;5.70;;
75550;SDS011;65071;53.082;18.218;2022-12-18T05:43:30;19.80;;;7.00;;
75550;SDS011;65071;53.082;18.218;2022-12-18T05:45:57;22.10;;;7.50;;
75550;SDS011;65071;53.082;18.218;2022-12-18T05:48:24;22.30;;;7.70;;
75550;SDS011;65071;53.082;18.218;2022-12-18T05:50:50;13.60;;;5.00;;
75550;SDS011;65071;53.082;18.218;2022-12-18T05:53:18;18.70;;;7.30;;
75550;SDS011;65071;53.082;18.218;2022-12-18T05:55:46;15.70;;;6.50;;
75550;SDS011;65071;53.082;18.218;2022-12-18T05:58:14;22.30;;;8.20;;
75550;SDS011;65071;53.082;18.218;2022-12-18T06:00:42;26.70;;;9.50;;
75550;SDS011;65071;53.082;18.218;2022-12-18T06:03:12;24.30;;;8.10;;
75550;SDS011;65071;53.082;18.218;2022-12-18T06:05:40;21.80;;;7.30;;
75550;SDS011;65071;53.082;18.218;2022-12-18T06:08:08;23.10;;;8.70;;
75550;SDS011;65071;53.082;18.218;2022-12-18T06:10:36;19.60;;;8.00;;
75550;SDS011;65071;53.082;18.218;2022-12-18T06:13:03;16.10;;;4.40;;
75550;SDS011;65071;53.082;18.218;2022-12-18T06:15:30;21.80;;;7.30;;
75550;SDS011;65071;53.082;18.218;2022-12-18T06:17:56;19.20;;;6.50;;
75550;SDS011;65071;53.082;18.218;2022-12-18T06:20:23;18.00;;;7.10;;
75550;SDS011;65071;53.082;18.218;2022-12-18T06:22:49;21.50;;;7.60;;
75550;SDS011;65071;53.082;18.218;2022-12-18T06:25:16;19.50;;;6.40;;
75550;SDS011;65071;53.082;18.218;2022-12-18T06:27:43;16.00;;;6.40;;
75550;SDS011;65071;53.082;18.218;2022-12-18T06:30:09;16.40;;;6.40;;
75550;SDS011;65071;53.082;18.218;2022-12-18T06:32:37;22.50;;;8.10;;
75550;SDS011;65071;53.082;18.218;2022-12-18T06:35:03;16.60;;;6.30;;
75550;SDS011;65071;53.082;18.218;2022-12-18T06:37:30;23.80;;;8.20;;
75550;SDS011;65071;53.082;18.218;2022-12-18T06:39:57;18.10;;;6.60;;
75550;SDS011;65071;53.082;18.218;2022-12-18T06:42:24;17.90;;;5.40;;
75550;SDS011;65071;53.082;18.218;2022-12-18T06:44:51;26.00;;;8.70;;
75550;SDS011;65071;53.082;18.218;2022-12-18T06:47:17;23.80;;;7.20;;
75550;SDS011;65071;53.082;18.218;2022-12-18T06:49:44;13.90;;;4.70;;
75550;SDS011;65071;53.082;18.218;2022-12-18T06:52:11;17.10;;;6.70;;
75550;SDS011;65071;53.082;18.218;2022-12-18T06:54:37;22.60;;;7.30;;
75550;SDS011;65071;53.082;18.218;2022-12-18T06:57:04;18.60;;;6.20;;
75550;SDS011;65071;53.082;18.218;2022-12-18T06:59:30;18.80;;;6.90;;
75550;SDS011;65071;53.082;18.218;2022-12-18T07:01:57;17.30;;;5.90;;
75550;SDS011;65071;53.082;18.218;2022-12-18T07:04:27;22.20;;;7.70;;
75550;SDS011;65071;53.082;18.218;2022-12-18T07:06:54;18.00;;;6.40;;
75550;SDS011;65071;53.082;18.218;2022-12-18T07:09:21;20.90;;;6.80;;
75550;SDS011;65071;53.082;18.218;2022-12-18T07:11:48;21.10;;;6.70;;
75550;SDS011;65071;53.082;18.218;2022-12-18T07:14:14;24.70;;;8.50;;
75550;SDS011;65071;53.082;18.218;2022-12-18T07:16:41;33.10;;;10.30;;
75550;SDS011;65071;53.082;18.218;2022-12-18T07:19:07;30.90;;;9.60;;
75550;SDS011;65071;53.082;18.218;2022-12-18T07:21:34;29.00;;;8.50;;
75550;SDS011;65071;53.082;18.218;2022-12-18T07:24:00;26.70;;;8.80;;
75550;SDS011;65071;53.082;18.218;2022-12-18T07:26:27;26.20;;;8.50;;
75550;SDS011;65071;53.082;18.218;2022-12-18T07:28:54;19.10;;;7.70;;
75550;SDS011;65071;53.082;18.218;2022-12-18T07:31:24;25.80;;;8.50;;
75550;SDS011;65071;53.082;18.218;2022-12-18T07:33:51;29.30;;;8.90;;
75550;SDS011;65071;53.082;18.218;2022-12-18T07:36:18;22.40;;;7.80;;
75550;SDS011;65071;53.082;18.218;2022-12-18T07:38:49;23.60;;;7.50;;
75550;SDS011;65071;53.082;18.218;2022-12-18T07:41:16;24.70;;;7.40;;
75550;SDS011;65071;53.082;18.218;2022-12-18T07:43:43;23.10;;;6.20;;
75550;SDS011;65071;53.082;18.218;2022-12-18T07:46:10;26.10;;;7.90;;
75550;SDS011;65071;53.082;18.218;2022-12-18T07:48:43;31.90;;;9.30;;
75550;SDS011;65071;53.082;18.218;2022-12-18T07:51:11;25.00;;;8.10;;
75550;SDS011;65071;53.082;18.218;2022-12-18T07:53:38;23.70;;;8.70;;
75550;SDS011;65071;53.082;18.218;2022-12-18T07:56:07;25.90;;;8.70;;
75550;SDS011;65071;53.082;18.218;2022-12-18T07:58:35;25.50;;;8.80;;
75550;SDS011;65071;53.082;18.218;2022-12-18T08:01:06;13.60;;;4.50;;
75550;SDS011;65071;53.082;18.218;2022-12-18T08:03:35;14.40;;;5.70;;
75550;SDS011;65071;53.082;18.218;2022-12-18T08:06:03;13.10;;;4.00;;
75550;SDS011;65071;53.082;18.218;2022-12-18T08:08:31;16.90;;;6.40;;
75550;SDS011;65071;53.082;18.218;2022-12-18T08:10:57;22.40;;;7.10;;
75550;SDS011;65071;53.082;18.218;2022-12-18T08:13:24;14.90;;;5.60;;
75550;SDS011;65071;53.082;18.218;2022-12-18T08:15:55;28.40;;;8.80;;
75550;SDS011;65071;53.082;18.218;2022-12-18T08:18:25;19.10;;;5.50;;
75550;SDS011;65071;53.082;18.218;2022-12-18T08:20:52;21.50;;;8.30;;
75550;SDS011;65071;53.082;18.218;2022-12-18T08:23:19;22.20;;;7.70;;
75550;SDS011;65071;53.082;18.218;2022-12-18T08:25:46;21.30;;;8.00;;
75550;SDS011;65071;53.082;18.218;2022-12-18T08:28:13;18.20;;;6.50;;
75550;SDS011;65071;53.082;18.218;2022-12-18T08:30:39;21.80;;;7.50;;
75550;SDS011;65071;53.082;18.218;2022-12-18T08:33:06;18.80;;;6.20;;
75550;SDS011;65071;53.082;18.218;2022-12-18T08:35:36;17.40;;;7.40;;
75550;SDS011;65071;53.082;18.218;2022-12-18T08:38:03;20.80;;;6.80;;
75550;SDS011;65071;53.082;18.218;2022-12-18T08:40:30;22.80;;;7.90;;
75550;SDS011;65071;53.082;18.218;2022-12-18T08:42:56;17.70;;;6.80;;
75550;SDS011;65071;53.082;18.218;2022-12-18T08:45:41;17.30;;;6.40;;
75550;SDS011;65071;53.082;18.218;2022-12-18T08:48:08;15.10;;;5.80;;
75550;SDS011;65071;53.082;18.218;2022-12-18T08:50:35;11.90;;;5.10;;
75550;SDS011;65071;53.082;18.218;2022-12-18T08:53:01;13.30;;;5.10;;
75550;SDS011;65071;53.082;18.218;2022-12-18T08:55:28;17.30;;;5.80;;
75550;SDS011;65071;53.082;18.218;2022-12-18T08:57:55;17.90;;;6.30;;
75550;SDS011;65071;53.082;18.218;2022-12-18T09:00:21;12.90;;;5.40;;
75550;SDS011;65071;53.082;18.218;2022-12-18T09:02:48;15.10;;;6.90;;
75550;SDS011;65071;53.082;18.218;2022-12-18T09:05:15;16.10;;;6.50;;
75550;SDS011;65071;53.082;18.218;2022-12-18T09:07:42;15.00;;;6.40;;
75550;SDS011;65071;53.082;18.218;2022-12-18T09:10:08;14.30;;;5.30;;
75550;SDS011;65071;53.082;18.218;2022-12-18T09:12:35;16.10;;;6.80;;
75550;SDS011;65071;53.082;18.218;2022-12-18T09:15:02;14.20;;;4.90;;
75550;SDS011;65071;53.082;18.218;2022-12-18T09:17:29;19.90;;;7.20;;
75550;SDS011;65071;53.082;18.218;2022-12-18T09:19:55;22.70;;;7.10;;
75550;SDS011;65071;53.082;18.218;2022-12-18T09:22:22;14.50;;;5.40;;
75550;SDS011;65071;53.082;18.218;2022-12-18T09:24:48;15.70;;;5.00;;
75550;SDS011;65071;53.082;18.218;2022-12-18T09:27:15;22.40;;;8.10;;
75550;SDS011;65071;53.082;18.218;2022-12-18T09:29:41;17.00;;;6.40;;
75550;SDS011;65071;53.082;18.218;2022-12-18T09:32:08;14.70;;;6.00;;
75550;SDS011;65071;53.082;18.218;2022-12-18T09:34:35;17.70;;;6.40;;
75550;SDS011;65071;53.082;18.218;2022-12-18T09:37:02;19.20;;;7.80;;
75550;SDS011;65071;53.082;18.218;2022-12-18T09:39:28;9.90;;;4.00;;
75550;SDS011;65071;53.082;18.218;2022-12-18T09:41:55;22.90;;;7.50;;
75550;SDS011;65071;53.082;18.218;2022-12-18T09:47:24;17.80;;;7.00;;
75550;SDS011;65071;53.082;18.218;2022-12-18T09:50:03;12.90;;;5.00;;
75550;SDS011;65071;53.082;18.218;2022-12-18T09:52:41;23.80;;;7.20;;
75550;SDS011;65071;53.082;18.218;2022-12-18T09:55:16;27.30;;;7.60;;
75550;SDS011;65071;53.082;18.218;2022-12-18T09:57:49;19.20;;;8.40;;
75550;SDS011;65071;53.082;18.218;2022-12-18T10:00:21;12.40;;;5.80;;
75550;SDS011;65071;53.082;18.218;2022-12-18T10:02:51;21.20;;;8.20;;
75550;SDS011;65071;53.082;18.218;2022-12-18T10:05:29;12.30;;;4.50;;
75550;SDS011;65071;53.082;18.218;2022-12-18T10:10:50;18.50;;;7.30;;
75550;SDS011;65071;53.082;18.218;2022-12-18T10:13:38;28.10;;;9.50;;
75550;SDS011;65071;53.082;18.218;2022-12-18T10:16:13;23.30;;;8.50;;
75550;SDS011;65071;53.082;18.218;2022-12-18T10:18:55;20.10;;;7.40;;
75550;SDS011;65071;53.082;18.218;2022-12-18T10:21:47;21.40;;;7.80;;
75550;SDS011;65071;53.082;18.218;2022-12-18T10:24:27;12.80;;;5.60;;
75550;SDS011;65071;53.082;18.218;2022-12-18T10:27:15;17.60;;;6.90;;
75550;SDS011;65071;53.082;18.218;2022-12-18T10:29:43;12.60;;;5.40;;
75550;SDS011;65071;53.082;18.218;2022-12-18T10:32:15;17.60;;;6.80;;
75550;SDS011;65071;53.082;18.218;2022-12-18T10:34:45;18.20;;;6.20;;
75550;SDS011;65071;53.082;18.218;2022-12-18T10:37:17;19.90;;;7.00;;
75550;SDS011;65071;53.082;18.218;2022-12-18T10:39:46;11.00;;;4.40;;
75550;SDS011;65071;53.082;18.218;2022-12-18T10:42:33;18.90;;;7.20;;
75550;SDS011;65071;53.082;18.218;2022-12-18T10:45:34;23.30;;;8.30;;
75550;SDS011;65071;53.082;18.218;2022-12-18T10:47:52;16.40;;;5.70;;
75550;SDS011;65071;53.082;18.218;2022-12-18T10:50:24;16.30;;;6.60;;
75550;SDS011;65071;53.082;18.218;2022-12-18T10:52:56;17.30;;;7.80;;
75550;SDS011;65071;53.082;18.218;2022-12-18T10:55:31;23.60;;;7.20;;
75550;SDS011;65071;53.082;18.218;2022-12-18T11:01:09;12.80;;;4.90;;
75550;SDS011;65071;53.082;18.218;2022-12-18T11:03:37;16.40;;;5.90;;
75550;SDS011;65071;53.082;18.218;2022-12-18T11:06:25;28.50;;;8.60;;
75550;SDS011;65071;53.082;18.218;2022-12-18T11:08:59;17.20;;;6.10;;
75550;SDS011;65071;53.082;18.218;2022-12-18T11:11:32;25.90;;;8.20;;
75550;SDS011;65071;53.082;18.218;2022-12-18T11:16:45;23.30;;;8.90;;
75550;SDS011;65071;53.082;18.218;2022-12-18T11:22:01;19.90;;;5.90;;
75550;SDS011;65071;53.082;18.218;2022-12-18T11:24:53;23.20;;;8.40;;
75550;SDS011;65071;53.082;18.218;2022-12-18T11:27:51;24.40;;;7.90;;
75550;SDS011;65071;53.082;18.218;2022-12-18T11:30:33;22.70;;;7.90;;
75550;SDS011;65071;53.082;18.218;2022-12-18T11:33:04;12.70;;;4.50;;
75550;SDS011;65071;53.082;18.218;2022-12-18T11:35:49;28.50;;;9.20;;
75550;SDS011;65071;53.082;18.218;2022-12-18T11:40:55;27.00;;;9.80;;
75550;SDS011;65071;53.082;18.218;2022-12-18T11:46:39;31.70;;;10.30;;
75550;SDS011;65071;53.082;18.218;2022-12-18T11:51:44;24.60;;;9.10;;
75550;SDS011;65071;53.082;18.218;2022-12-18T11:54:18;29.40;;;9.80;;
75550;SDS011;65071;53.082;18.218;2022-12-18T11:56:48;22.30;;;8.10;;
75550;SDS011;65071;53.082;18.218;2022-12-18T12:02:36;26.00;;;9.30;;
75550;SDS011;65071;53.082;18.218;2022-12-18T12:05:11;22.50;;;5.80;;
75550;SDS011;65071;53.082;18.218;2022-12-18T12:10:34;30.30;;;9.70;;
75550;SDS011;65071;53.082;18.218;2022-12-18T12:13:14;28.70;;;9.10;;
75550;SDS011;65071;53.082;18.218;2022-12-18T12:15:59;18.80;;;5.70;;
75550;SDS011;65071;53.082;18.218;2022-12-18T12:27:40;24.30;;;7.70;;
75550;SDS011;65071;53.082;18.218;2022-12-18T12:30:30;20.50;;;6.60;;
75550;SDS011;65071;53.082;18.218;2022-12-18T12:39:05;30.00;;;10.50;;
75550;SDS011;65071;53.082;18.218;2022-12-18T12:41:36;32.20;;;10.40;;
75550;SDS011;65071;53.082;18.218;2022-12-18T12:44:23;22.10;;;7.70;;
75550;SDS011;65071;53.082;18.218;2022-12-18T12:46:55;25.90;;;8.20;;
75550;SDS011;65071;53.082;18.218;2022-12-18T12:49:27;28.50;;;8.80;;
75550;SDS011;65071;53.082;18.218;2022-12-18T12:51:59;29.90;;;9.20;;
75550;SDS011;65071;53.082;18.218;2022-12-18T12:54:32;16.50;;;4.60;;
75550;SDS011;65071;53.082;18.218;2022-12-18T12:57:10;26.20;;;8.30;;
75550;SDS011;65071;53.082;18.218;2022-12-18T12:59:51;31.50;;;10.00;;
75550;SDS011;65071;53.082;18.218;2022-12-18T13:12:55;32.10;;;9.60;;
75550;SDS011;65071;53.082;18.218;2022-12-18T13:15:43;33.40;;;10.90;;
75550;SDS011;65071;53.082;18.218;2022-12-18T13:20:48;28.20;;;9.90;;
75550;SDS011;65071;53.082;18.218;2022-12-18T13:23:36;16.30;;;5.90;;
75550;SDS011;65071;53.082;18.218;2022-12-18T13:31:13;18.70;;;5.20;;
75550;SDS011;65071;53.082;18.218;2022-12-18T13:33:45;27.70;;;9.00;;
75550;SDS011;65071;53.082;18.218;2022-12-18T13:36:14;31.30;;;10.00;;
75550;SDS011;65071;53.082;18.218;2022-12-18T13:38:46;24.20;;;7.70;;
75550;SDS011;65071;53.082;18.218;2022-12-18T13:41:26;28.60;;;9.40;;
75550;SDS011;65071;53.082;18.218;2022-12-18T13:43:54;25.00;;;8.70;;
75550;SDS011;65071;53.082;18.218;2022-12-18T13:46:44;43.30;;;12.20;;
75550;SDS011;65071;53.082;18.218;2022-12-18T13:51:43;39.10;;;11.10;;
75550;SDS011;65071;53.082;18.218;2022-12-18T13:56:51;39.20;;;11.90;;
75550;SDS011;65071;53.082;18.218;2022-12-18T13:59:22;56.10;;;16.00;;
75550;SDS011;65071;53.082;18.218;2022-12-18T14:01:54;25.50;;;8.50;;
75550;SDS011;65071;53.082;18.218;2022-12-18T14:04:26;23.30;;;7.50;;
75550;SDS011;65071;53.082;18.218;2022-12-18T14:06:55;16.40;;;5.90;;
75550;SDS011;65071;53.082;18.218;2022-12-18T14:09:44;41.60;;;13.70;;
75550;SDS011;65071;53.082;18.218;2022-12-18T14:12:14;38.00;;;12.20;;
75550;SDS011;65071;53.082;18.218;2022-12-18T14:15:02;24.20;;;6.30;;
75550;SDS011;65071;53.082;18.218;2022-12-18T14:17:30;26.10;;;7.30;;
75550;SDS011;65071;53.082;18.218;2022-12-18T14:19:58;32.60;;;9.90;;
75550;SDS011;65071;53.082;18.218;2022-12-18T14:22:25;30.20;;;8.90;;
75550;SDS011;65071;53.082;18.218;2022-12-18T14:25:15;36.20;;;11.80;;
75550;SDS011;65071;53.082;18.218;2022-12-18T14:27:48;36.40;;;10.90;;
75550;SDS011;65071;53.082;18.218;2022-12-18T14:32:59;42.70;;;12.50;;
75550;SDS011;65071;53.082;18.218;2022-12-18T14:35:35;43.90;;;10.90;;
75550;SDS011;65071;53.082;18.218;2022-12-18T14:40:47;40.90;;;13.00;;
75550;SDS011;65071;53.082;18.218;2022-12-18T14:43:19;41.90;;;13.80;;
75550;SDS011;65071;53.082;18.218;2022-12-18T14:45:45;47.00;;;14.40;;
75550;SDS011;65071;53.082;18.218;2022-12-18T14:50:54;31.40;;;10.60;;
75550;SDS011;65071;53.082;18.218;2022-12-18T14:53:25;34.00;;;11.40;;
75550;SDS011;65071;53.082;18.218;2022-12-18T14:56:43;43.80;;;12.40;;
75550;SDS011;65071;53.082;18.218;2022-12-18T14:59:21;35.60;;;9.10;;
75550;SDS011;65071;53.082;18.218;2022-12-18T15:04:35;52.80;;;15.30;;
75550;SDS011;65071;53.082;18.218;2022-12-18T15:07:16;28.80;;;8.60;;
75550;SDS011;65071;53.082;18.218;2022-12-18T15:10:09;26.90;;;7.60;;
75550;SDS011;65071;53.082;18.218;2022-12-18T15:12:47;16.80;;;5.20;;
75550;SDS011;65071;53.082;18.218;2022-12-18T15:18:04;38.10;;;11.40;;
75550;SDS011;65071;53.082;18.218;2022-12-18T15:20:58;28.50;;;9.60;;
75550;SDS011;65071;53.082;18.218;2022-12-18T15:26:04;47.60;;;13.10;;
75550;SDS011;65071;53.082;18.218;2022-12-18T15:31:46;23.70;;;6.50;;
75550;SDS011;65071;53.082;18.218;2022-12-18T15:36:25;34.70;;;9.80;;
75550;SDS011;65071;53.082;18.218;2022-12-18T15:38:54;24.70;;;6.40;;
75550;SDS011;65071;53.082;18.218;2022-12-18T15:41:22;18.20;;;6.20;;
75550;SDS011;65071;53.082;18.218;2022-12-18T15:43:51;45.80;;;12.60;;
75550;SDS011;65071;53.082;18.218;2022-12-18T15:46:19;37.30;;;9.10;;
75550;SDS011;65071;53.082;18.218;2022-12-18T15:48:49;39.10;;;12.10;;
75550;SDS011;65071;53.082;18.218;2022-12-18T15:51:24;32.30;;;7.90;;
75550;SDS011;65071;53.082;18.218;2022-12-18T15:53:55;48.70;;;14.30;;
75550;SDS011;65071;53.082;18.218;2022-12-18T15:56:23;46.00;;;12.80;;
75550;SDS011;65071;53.082;18.218;2022-12-18T15:59:09;43.50;;;10.00;;
75550;SDS011;65071;53.082;18.218;2022-12-18T16:01:38;62.40;;;15.80;;
75550;SDS011;65071;53.082;18.218;2022-12-18T16:04:06;61.70;;;16.00;;
75550;SDS011;65071;53.082;18.218;2022-12-18T16:06:32;39.20;;;9.70;;
75550;SDS011;65071;53.082;18.218;2022-12-18T16:08:59;54.80;;;15.80;;
75550;SDS011;65071;53.082;18.218;2022-12-18T16:11:27;34.70;;;8.80;;
75550;SDS011;65071;53.082;18.218;2022-12-18T16:16:31;41.30;;;9.70;;
75550;SDS011;65071;53.082;18.218;2022-12-18T16:18:58;38.30;;;11.00;;
75550;SDS011;65071;53.082;18.218;2022-12-18T16:21:24;49.70;;;11.30;;
75550;SDS011;65071;53.082;18.218;2022-12-18T16:23:51;76.40;;;20.10;;
75550;SDS011;65071;53.082;18.218;2022-12-18T16:26:17;32.40;;;7.60;;
75550;SDS011;65071;53.082;18.218;2022-12-18T16:28:44;44.20;;;13.00;;
75550;SDS011;65071;53.082;18.218;2022-12-18T16:31:11;57.30;;;14.90;;
75550;SDS011;65071;53.082;18.218;2022-12-18T16:33:37;46.80;;;12.50;;
75550;SDS011;65071;53.082;18.218;2022-12-18T16:36:04;23.50;;;7.00;;
75550;SDS011;65071;53.082;18.218;2022-12-18T16:38:31;25.30;;;6.30;;
75550;SDS011;65071;53.082;18.218;2022-12-18T16:40:57;49.80;;;14.00;;
75550;SDS011;65071;53.082;18.218;2022-12-18T16:43:42;53.60;;;14.10;;
75550;SDS011;65071;53.082;18.218;2022-12-18T16:46:09;56.80;;;14.80;;
75550;SDS011;65071;53.082;18.218;2022-12-18T16:48:36;45.90;;;12.80;;